sensor_id;sensor_type;location;lat;lon;timestamp;P1;durP1;ratioP1;P2;durP2;ratioP2
55031;SDS011;40928;51.076;7.950;2022-12-18T00:01:05;27.10;;;11.90;;
55031;SDS011;40928;51.076;7.950;2022-12-18T00:03:49;41.35;;;15.65;;
55031;SDS011;40928;51.076;7.950;2022-12-18T00:06:16;45.65;;;17.45;;
55031;SDS011;40928;51.076;7.950;2022-12-18T00:08:43;42.83;;;19.45;;
55031;SDS011;40928;51.076;7.950;2022-12-18T00:11:11;34.78;;;16.35;;
55031;SDS011;40928;51.076;7.950;2022-12-18T00:13:41;47.47;;;17.63;;
55031;SDS011;40928;51.076;7.950;2022-12-18T00:16:10;42.95;;;15.70;;
55031;SDS011;40928;51.076;7.950;2022-12-18T00:18:41;17.63;;;7.97;;
55031;SDS011;40928;51.076;7.950;2022-12-18T00:21:08;15.63;;;7.07;;
55031;SDS011;40928;51.076;7.950;2022-12-18T00:23:36;19.55;;;7.50;;
55031;SDS011;40928;51.076;7.950;2022-12-18T00:26:07;19.40;;;5.57;;
55031;SDS011;40928;51.076;7.950;2022-12-18T00:28:38;12.63;;;5.10;;
55031;SDS011;40928;51.076;7.950;2022-12-18T00:31:05;9.23;;;4.63;;
55031;SDS011;40928;51.076;7.950;2022-12-18T00:33:42;8.35;;;3.35;;
55031;SDS011;40928;51.076;7.950;2022-12-18T00:36:12;7.00;;;3.55;;
55031;SDS011;40928;51.076;7.950;2022-12-18T00:38:40;11.98;;;4.30;;
55031;SDS011;40928;51.076;7.950;2022-12-18T00:41:06;16.75;;;7.85;;
55031;SDS011;40928;51.076;7.950;2022-12-18T00:43:34;13.07;;;5.47;;
55031;SDS011;40928;51.076;7.950;2022-12-18T00:46:00;10.57;;;3.80;;
55031;SDS011;40928;51.076;7.950;2022-12-18T00:48:26;12.35;;;5.07;;
55031;SDS011;40928;51.076;7.950;2022-12-18T00:50:52;10.77;;;4.75;;
55031;SDS011;40928;51.076;7.950;2022-12-18T00:53:17;13.02;;;4.97;;
55031;SDS011;40928;51.076;7.950;2022-12-18T00:55:43;5.85;;;2.78;;
55031;SDS011;40928;51.076;7.950;2022-12-18T00:58:11;10.48;;;2.47;;
55031;SDS011;40928;51.076;7.950;2022-12-18T01:00:37;9.07;;;3.55;;
55031;SDS011;40928;51.076;7.950;2022-12-18T01:03:03;8.55;;;3.03;;
55031;SDS011;40928;51.076;7.950;2022-12-18T01:05:29;6.88;;;2.78;;
55031;SDS011;40928;51.076;7.950;2022-12-18T01:07:55;16.20;;;5.25;;
55031;SDS011;40928;51.076;7.950;2022-12-18T01:10:22;5.78;;;2.92;;
55031;SDS011;40928;51.076;7.950;2022-12-18T01:12:48;7.20;;;2.30;;
55031;SDS011;40928;51.076;7.950;2022-12-18T01:15:14;9.77;;;2.88;;
55031;SDS011;40928;51.076;7.950;2022-12-18T01:17:42;4.55;;;2.33;;
55031;SDS011;40928;51.076;7.950;2022-12-18T01:20:09;4.32;;;2.42;;
55031;SDS011;40928;51.076;7.950;2022-12-18T01:22:37;5.03;;;2.50;;
55031;SDS011;40928;51.076;7.950;2022-12-18T01:25:03;8.82;;;2.20;;
55031;SDS011;40928;51.076;7.950;2022-12-18T01:27:30;9.27;;;3.45;;
55031;SDS011;40928;51.076;7.950;2022-12-18T01:29:56;4.97;;;2.50;;
55031;SDS011;40928;51.076;7.950;2022-12-18T01:32:22;4.13;;;2.08;;
55031;SDS011;40928;51.076;7.950;2022-12-18T01:34:48;9.85;;;3.05;;
55031;SDS011;40928;51.076;7.950;2022-12-18T01:37:14;4.75;;;2.08;;
55031;SDS011;40928;51.076;7.950;2022-12-18T01:39:40;6.78;;;2.15;;
55031;SDS011;40928;51.076;7.950;2022-12-18T01:42:10;3.67;;;1.83;;
55031;SDS011;40928;51.076;7.950;2022-12-18T01:47:50;4.55;;;2.20;;
55031;SDS011;40928;51.076;7.950;2022-12-18T01:52:58;3.97;;;1.85;;
55031;SDS011;40928;51.076;7.950;2022-12-18T01:55:29;5.15;;;2.10;;
55031;SDS011;40928;51.076;7.950;2022-12-18T01:57:57;6.13;;;1.92;;
55031;SDS011;40928;51.076;7.950;2022-12-18T02:00:25;3.80;;;1.70;;
55031;SDS011;40928;51.076;7.950;2022-12-18T02:02:51;6.07;;;1.95;;
55031;SDS011;40928;51.076;7.950;2022-12-18T02:05:40;3.60;;;1.67;;
55031;SDS011;40928;51.076;7.950;2022-12-18T02:08:10;2.45;;;1.30;;
55031;SDS011;40928;51.076;7.950;2022-12-18T02:10:46;2.42;;;1.60;;
55031;SDS011;40928;51.076;7.950;2022-12-18T02:16:08;3.88;;;2.05;;
55031;SDS011;40928;51.076;7.950;2022-12-18T02:18:45;8.75;;;2.00;;
55031;SDS011;40928;51.076;7.950;2022-12-18T02:26:59;4.13;;;1.80;;
55031;SDS011;40928;51.076;7.950;2022-12-18T02:29:38;4.15;;;2.15;;
55031;SDS011;40928;51.076;7.950;2022-12-18T02:32:11;3.38;;;1.77;;
55031;SDS011;40928;51.076;7.950;2022-12-18T02:34:41;4.20;;;2.15;;
55031;SDS011;40928;51.076;7.950;2022-12-18T02:37:14;6.38;;;2.28;;
55031;SDS011;40928;51.076;7.950;2022-12-18T02:39:44;3.33;;;2.03;;
55031;SDS011;40928;51.076;7.950;2022-12-18T02:42:13;4.75;;;2.42;;
55031;SDS011;40928;51.076;7.950;2022-12-18T02:44:49;4.30;;;1.73;;
55031;SDS011;40928;51.076;7.950;2022-12-18T02:47:20;4.43;;;2.53;;
55031;SDS011;40928;51.076;7.950;2022-12-18T02:50:08;4.60;;;1.67;;
55031;SDS011;40928;51.076;7.950;2022-12-18T02:53:00;4.80;;;2.13;;
55031;SDS011;40928;51.076;7.950;2022-12-18T03:01:19;3.13;;;1.88;;
55031;SDS011;40928;51.076;7.950;2022-12-18T03:03:57;4.65;;;1.92;;
55031;SDS011;40928;51.076;7.950;2022-12-18T03:06:41;7.35;;;2.65;;
55031;SDS011;40928;51.076;7.950;2022-12-18T03:09:21;3.63;;;1.52;;
55031;SDS011;40928;51.076;7.950;2022-12-18T03:11:56;2.67;;;1.88;;
55031;SDS011;40928;51.076;7.950;2022-12-18T03:14:46;5.38;;;2.05;;
55031;SDS011;40928;51.076;7.950;2022-12-18T03:17:36;7.63;;;2.35;;
55031;SDS011;40928;51.076;7.950;2022-12-18T03:20:07;5.97;;;2.13;;
55031;SDS011;40928;51.076;7.950;2022-12-18T03:22:39;6.40;;;2.45;;
55031;SDS011;40928;51.076;7.950;2022-12-18T03:25:09;4.30;;;2.78;;
55031;SDS011;40928;51.076;7.950;2022-12-18T03:27:41;3.67;;;2.20;;
55031;SDS011;40928;51.076;7.950;2022-12-18T03:30:13;9.82;;;2.65;;
55031;SDS011;40928;51.076;7.950;2022-12-18T03:32:47;4.80;;;2.35;;
55031;SDS011;40928;51.076;7.950;2022-12-18T03:35:21;5.45;;;2.08;;
55031;SDS011;40928;51.076;7.950;2022-12-18T03:37:51;3.08;;;1.85;;
55031;SDS011;40928;51.076;7.950;2022-12-18T03:40:17;6.53;;;2.90;;
55031;SDS011;40928;51.076;7.950;2022-12-18T03:42:51;8.35;;;3.25;;
55031;SDS011;40928;51.076;7.950;2022-12-18T03:45:51;2.53;;;1.95;;
55031;SDS011;40928;51.076;7.950;2022-12-18T03:48:31;3.92;;;1.88;;
55031;SDS011;40928;51.076;7.950;2022-12-18T03:51:21;6.15;;;2.50;;
55031;SDS011;40928;51.076;7.950;2022-12-18T03:53:57;4.40;;;2.42;;
55031;SDS011;40928;51.076;7.950;2022-12-18T03:56:33;4.90;;;1.98;;
55031;SDS011;40928;51.076;7.950;2022-12-18T03:59:12;4.72;;;1.88;;
55031;SDS011;40928;51.076;7.950;2022-12-18T04:01:42;6.22;;;2.95;;
55031;SDS011;40928;51.076;7.950;2022-12-18T04:07:05;7.72;;;2.20;;
55031;SDS011;40928;51.076;7.950;2022-12-18T04:09:35;6.80;;;2.55;;
55031;SDS011;40928;51.076;7.950;2022-12-18T04:12:03;4.35;;;2.17;;
55031;SDS011;40928;51.076;7.950;2022-12-18T04:14:31;9.98;;;2.25;;
55031;SDS011;40928;51.076;7.950;2022-12-18T04:17:04;7.90;;;2.33;;
55031;SDS011;40928;51.076;7.950;2022-12-18T04:19:32;5.07;;;2.00;;
55031;SDS011;40928;51.076;7.950;2022-12-18T04:21:58;4.45;;;2.35;;
55031;SDS011;40928;51.076;7.950;2022-12-18T04:24:25;3.08;;;1.52;;
55031;SDS011;40928;51.076;7.950;2022-12-18T04:27:05;6.88;;;2.90;;
55031;SDS011;40928;51.076;7.950;2022-12-18T04:29:35;4.68;;;2.72;;
55031;SDS011;40928;51.076;7.950;2022-12-18T04:32:09;4.65;;;2.05;;
55031;SDS011;40928;51.076;7.950;2022-12-18T04:34:40;4.15;;;2.17;;
55031;SDS011;40928;51.076;7.950;2022-12-18T04:37:06;8.10;;;2.70;;
55031;SDS011;40928;51.076;7.950;2022-12-18T04:39:31;8.48;;;2.65;;
55031;SDS011;40928;51.076;7.950;2022-12-18T04:42:03;5.22;;;1.73;;
55031;SDS011;40928;51.076;7.950;2022-12-18T04:44:28;7.60;;;2.45;;
55031;SDS011;40928;51.076;7.950;2022-12-18T04:46:54;6.57;;;2.50;;
55031;SDS011;40928;51.076;7.950;2022-12-18T04:49:21;4.85;;;2.65;;
55031;SDS011;40928;51.076;7.950;2022-12-18T04:51:46;13.45;;;4.30;;
55031;SDS011;40928;51.076;7.950;2022-12-18T04:54:12;7.82;;;3.67;;
55031;SDS011;40928;51.076;7.950;2022-12-18T04:56:37;12.77;;;4.53;;
55031;SDS011;40928;51.076;7.950;2022-12-18T04:59:03;10.43;;;3.50;;
55031;SDS011;40928;51.076;7.950;2022-12-18T05:01:29;12.63;;;5.13;;
55031;SDS011;40928;51.076;7.950;2022-12-18T05:03:54;14.20;;;3.47;;
55031;SDS011;40928;51.076;7.950;2022-12-18T05:06:20;8.75;;;3.70;;
55031;SDS011;40928;51.076;7.950;2022-12-18T05:08:45;9.35;;;4.78;;
55031;SDS011;40928;51.076;7.950;2022-12-18T05:11:12;11.82;;;3.92;;
55031;SDS011;40928;51.076;7.950;2022-12-18T05:13:40;13.15;;;3.95;;
55031;SDS011;40928;51.076;7.950;2022-12-18T05:16:07;14.30;;;4.53;;
55031;SDS011;40928;51.076;7.950;2022-12-18T05:18:33;10.25;;;4.22;;
55031;SDS011;40928;51.076;7.950;2022-12-18T05:20:59;5.70;;;2.78;;
55031;SDS011;40928;51.076;7.950;2022-12-18T05:23:25;7.82;;;3.22;;
55031;SDS011;40928;51.076;7.950;2022-12-18T05:25:52;8.88;;;3.17;;
55031;SDS011;40928;51.076;7.950;2022-12-18T05:28:19;9.55;;;4.15;;
55031;SDS011;40928;51.076;7.950;2022-12-18T05:30:48;6.65;;;3.22;;
55031;SDS011;40928;51.076;7.950;2022-12-18T05:33:18;7.43;;;3.05;;
55031;SDS011;40928;51.076;7.950;2022-12-18T05:35:44;9.85;;;3.70;;
55031;SDS011;40928;51.076;7.950;2022-12-18T05:38:22;16.95;;;4.82;;
55031;SDS011;40928;51.076;7.950;2022-12-18T05:40:49;8.18;;;3.15;;
55031;SDS011;40928;51.076;7.950;2022-12-18T05:43:15;17.52;;;4.82;;
55031;SDS011;40928;51.076;7.950;2022-12-18T05:45:42;10.70;;;4.20;;
55031;SDS011;40928;51.076;7.950;2022-12-18T05:48:09;8.48;;;2.88;;
55031;SDS011;40928;51.076;7.950;2022-12-18T05:50:39;13.10;;;3.45;;
55031;SDS011;40928;51.076;7.950;2022-12-18T05:53:06;6.28;;;3.10;;
55031;SDS011;40928;51.076;7.950;2022-12-18T05:55:33;6.05;;;2.90;;
55031;SDS011;40928;51.076;7.950;2022-12-18T05:57:59;10.45;;;3.22;;
55031;SDS011;40928;51.076;7.950;2022-12-18T06:00:25;8.65;;;3.42;;
55031;SDS011;40928;51.076;7.950;2022-12-18T06:02:52;10.30;;;3.80;;
55031;SDS011;40928;51.076;7.950;2022-12-18T06:05:17;11.50;;;3.58;;
55031;SDS011;40928;51.076;7.950;2022-12-18T06:07:43;10.60;;;3.25;;
55031;SDS011;40928;51.076;7.950;2022-12-18T06:10:08;7.38;;;3.65;;
55031;SDS011;40928;51.076;7.950;2022-12-18T06:12:34;14.07;;;4.22;;
55031;SDS011;40928;51.076;7.950;2022-12-18T06:14:59;8.05;;;3.63;;
55031;SDS011;40928;51.076;7.950;2022-12-18T06:17:32;7.53;;;3.90;;
55031;SDS011;40928;51.076;7.950;2022-12-18T06:19:58;8.57;;;3.47;;
55031;SDS011;40928;51.076;7.950;2022-12-18T06:22:24;14.40;;;3.80;;
55031;SDS011;40928;51.076;7.950;2022-12-18T06:24:50;10.38;;;3.13;;
55031;SDS011;40928;51.076;7.950;2022-12-18T06:27:16;10.13;;;3.33;;
55031;SDS011;40928;51.076;7.950;2022-12-18T06:29:42;7.93;;;3.55;;
55031;SDS011;40928;51.076;7.950;2022-12-18T06:32:08;5.68;;;3.00;;
55031;SDS011;40928;51.076;7.950;2022-12-18T06:34:33;8.65;;;4.75;;
55031;SDS011;40928;51.076;7.950;2022-12-18T06:36:59;13.73;;;4.28;;
55031;SDS011;40928;51.076;7.950;2022-12-18T06:39:28;14.75;;;4.45;;
55031;SDS011;40928;51.076;7.950;2022-12-18T06:41:53;13.23;;;5.10;;
55031;SDS011;40928;51.076;7.950;2022-12-18T06:44:19;9.45;;;4.70;;
55031;SDS011;40928;51.076;7.950;2022-12-18T06:46:44;17.27;;;5.32;;
55031;SDS011;40928;51.076;7.950;2022-12-18T06:49:10;28.80;;;9.25;;
55031;SDS011;40928;51.076;7.950;2022-12-18T06:51:36;22.85;;;7.07;;
55031;SDS011;40928;51.076;7.950;2022-12-18T06:54:05;20.00;;;6.20;;
55031;SDS011;40928;51.076;7.950;2022-12-18T06:56:30;18.92;;;6.43;;
55031;SDS011;40928;51.076;7.950;2022-12-18T06:58:56;16.05;;;4.95;;
55031;SDS011;40928;51.076;7.950;2022-12-18T07:01:22;15.35;;;4.50;;
55031;SDS011;40928;51.076;7.950;2022-12-18T07:03:51;15.38;;;4.85;;
55031;SDS011;40928;51.076;7.950;2022-12-18T07:06:19;11.98;;;4.57;;
55031;SDS011;40928;51.076;7.950;2022-12-18T07:08:47;13.50;;;5.00;;
55031;SDS011;40928;51.076;7.950;2022-12-18T07:11:13;10.77;;;4.45;;
55031;SDS011;40928;51.076;7.950;2022-12-18T07:13:39;17.70;;;6.10;;
55031;SDS011;40928;51.076;7.950;2022-12-18T07:16:08;16.10;;;6.18;;
55031;SDS011;40928;51.076;7.950;2022-12-18T07:18:41;12.02;;;4.70;;
55031;SDS011;40928;51.076;7.950;2022-12-18T07:21:10;19.20;;;5.20;;
55031;SDS011;40928;51.076;7.950;2022-12-18T07:23:37;8.25;;;4.80;;
55031;SDS011;40928;51.076;7.950;2022-12-18T07:26:07;9.80;;;4.50;;
55031;SDS011;40928;51.076;7.950;2022-12-18T07:28:35;12.98;;;4.90;;
55031;SDS011;40928;51.076;7.950;2022-12-18T07:31:06;9.55;;;4.50;;
55031;SDS011;40928;51.076;7.950;2022-12-18T07:33:34;11.50;;;6.18;;
55031;SDS011;40928;51.076;7.950;2022-12-18T07:36:01;9.60;;;5.70;;
55031;SDS011;40928;51.076;7.950;2022-12-18T07:38:29;15.65;;;6.53;;
55031;SDS011;40928;51.076;7.950;2022-12-18T07:41:00;14.18;;;6.97;;
55031;SDS011;40928;51.076;7.950;2022-12-18T07:43:27;11.60;;;4.80;;
55031;SDS011;40928;51.076;7.950;2022-12-18T07:45:52;15.88;;;6.55;;
55031;SDS011;40928;51.076;7.950;2022-12-18T07:48:18;12.60;;;5.10;;
55031;SDS011;40928;51.076;7.950;2022-12-18T07:50:43;10.40;;;5.15;;
55031;SDS011;40928;51.076;7.950;2022-12-18T07:53:09;13.10;;;5.20;;
55031;SDS011;40928;51.076;7.950;2022-12-18T07:55:35;10.77;;;4.88;;
55031;SDS011;40928;51.076;7.950;2022-12-18T07:58:01;11.68;;;5.80;;
55031;SDS011;40928;51.076;7.950;2022-12-18T08:00:30;7.78;;;4.28;;
55031;SDS011;40928;51.076;7.950;2022-12-18T08:02:56;21.35;;;6.93;;
55031;SDS011;40928;51.076;7.950;2022-12-18T08:05:23;19.65;;;8.30;;
55031;SDS011;40928;51.076;7.950;2022-12-18T08:07:49;23.38;;;8.80;;
55031;SDS011;40928;51.076;7.950;2022-12-18T08:10:14;23.60;;;8.93;;
55031;SDS011;40928;51.076;7.950;2022-12-18T08:12:40;17.83;;;6.82;;
55031;SDS011;40928;51.076;7.950;2022-12-18T08:15:06;21.02;;;9.05;;
55031;SDS011;40928;51.076;7.950;2022-12-18T08:17:32;24.13;;;10.32;;
55031;SDS011;40928;51.076;7.950;2022-12-18T08:19:57;30.20;;;10.73;;
55031;SDS011;40928;51.076;7.950;2022-12-18T08:22:23;22.20;;;9.15;;
55031;SDS011;40928;51.076;7.950;2022-12-18T08:24:48;12.93;;;5.80;;
55031;SDS011;40928;51.076;7.950;2022-12-18T08:27:14;12.00;;;5.75;;
55031;SDS011;40928;51.076;7.950;2022-12-18T08:29:39;15.15;;;5.45;;
55031;SDS011;40928;51.076;7.950;2022-12-18T08:32:05;11.85;;;5.80;;
55031;SDS011;40928;51.076;7.950;2022-12-18T08:34:31;10.73;;;4.63;;
55031;SDS011;40928;51.076;7.950;2022-12-18T08:36:56;10.18;;;4.30;;
55031;SDS011;40928;51.076;7.950;2022-12-18T08:39:22;9.77;;;3.28;;
55031;SDS011;40928;51.076;7.950;2022-12-18T08:41:47;17.05;;;6.72;;
55031;SDS011;40928;51.076;7.950;2022-12-18T08:44:33;20.20;;;5.63;;
55031;SDS011;40928;51.076;7.950;2022-12-18T08:47:05;17.20;;;5.38;;
55031;SDS011;40928;51.076;7.950;2022-12-18T08:49:31;22.58;;;6.65;;
55031;SDS011;40928;51.076;7.950;2022-12-18T08:51:57;10.80;;;3.80;;
55031;SDS011;40928;51.076;7.950;2022-12-18T08:54:23;9.95;;;2.60;;
55031;SDS011;40928;51.076;7.950;2022-12-18T08:56:49;8.85;;;2.90;;
55031;SDS011;40928;51.076;7.950;2022-12-18T08:59:16;5.45;;;2.35;;
55031;SDS011;40928;51.076;7.950;2022-12-18T09:01:41;6.85;;;2.78;;
55031;SDS011;40928;51.076;7.950;2022-12-18T09:04:08;8.93;;;2.28;;
55031;SDS011;40928;51.076;7.950;2022-12-18T09:06:35;5.28;;;2.17;;
55031;SDS011;40928;51.076;7.950;2022-12-18T09:09:01;5.45;;;2.55;;
55031;SDS011;40928;51.076;7.950;2022-12-18T09:11:28;3.85;;;1.75;;
55031;SDS011;40928;51.076;7.950;2022-12-18T09:13:54;7.65;;;2.38;;
55031;SDS011;40928;51.076;7.950;2022-12-18T09:16:21;7.35;;;2.33;;
55031;SDS011;40928;51.076;7.950;2022-12-18T09:18:47;5.25;;;2.20;;
55031;SDS011;40928;51.076;7.950;2022-12-18T09:21:17;5.32;;;1.88;;
55031;SDS011;40928;51.076;7.950;2022-12-18T09:23:48;5.57;;;1.98;;
55031;SDS011;40928;51.076;7.950;2022-12-18T09:26:21;5.15;;;2.03;;
55031;SDS011;40928;51.076;7.950;2022-12-18T09:28:48;4.05;;;2.03;;
55031;SDS011;40928;51.076;7.950;2022-12-18T09:31:15;6.68;;;2.08;;
55031;SDS011;40928;51.076;7.950;2022-12-18T09:33:42;4.22;;;2.03;;
55031;SDS011;40928;51.076;7.950;2022-12-18T09:36:09;4.00;;;1.58;;
55031;SDS011;40928;51.076;7.950;2022-12-18T09:38:36;3.80;;;1.90;;
55031;SDS011;40928;51.076;7.950;2022-12-18T09:41:06;3.80;;;2.17;;
55031;SDS011;40928;51.076;7.950;2022-12-18T09:43:56;6.97;;;2.05;;
55031;SDS011;40928;51.076;7.950;2022-12-18T09:46:27;4.10;;;2.05;;
55031;SDS011;40928;51.076;7.950;2022-12-18T09:49:05;4.53;;;1.90;;
55031;SDS011;40928;51.076;7.950;2022-12-18T09:51:37;5.85;;;1.83;;
55031;SDS011;40928;51.076;7.950;2022-12-18T09:54:12;3.15;;;1.67;;
55031;SDS011;40928;51.076;7.950;2022-12-18T09:56:43;4.18;;;2.05;;
55031;SDS011;40928;51.076;7.950;2022-12-18T09:59:20;4.88;;;1.88;;
55031;SDS011;40928;51.076;7.950;2022-12-18T10:01:49;3.92;;;1.65;;
55031;SDS011;40928;51.076;7.950;2022-12-18T10:04:15;5.13;;;1.65;;
55031;SDS011;40928;51.076;7.950;2022-12-18T10:06:46;3.80;;;1.73;;
55031;SDS011;40928;51.076;7.950;2022-12-18T10:09:37;2.47;;;1.55;;
55031;SDS011;40928;51.076;7.950;2022-12-18T10:17:26;2.88;;;1.55;;
55031;SDS011;40928;51.076;7.950;2022-12-18T10:28:12;2.97;;;1.60;;
55031;SDS011;40928;51.076;7.950;2022-12-18T10:30:40;2.65;;;1.27;;
55031;SDS011;40928;51.076;7.950;2022-12-18T10:33:17;3.60;;;1.55;;
55031;SDS011;40928;51.076;7.950;2022-12-18T10:35:44;1.75;;;1.27;;
55031;SDS011;40928;51.076;7.950;2022-12-18T10:43:46;3.70;;;1.70;;
55031;SDS011;40928;51.076;7.950;2022-12-18T10:46:12;2.83;;;1.30;;
55031;SDS011;40928;51.076;7.950;2022-12-18T10:48:51;2.58;;;1.23;;
55031;SDS011;40928;51.076;7.950;2022-12-18T10:54:02;2.72;;;1.45;;
55031;SDS011;40928;51.076;7.950;2022-12-18T10:56:31;1.92;;;1.30;;
55031;SDS011;40928;51.076;7.950;2022-12-18T10:59:01;3.25;;;1.30;;
55031;SDS011;40928;51.076;7.950;2022-12-18T11:01:49;3.72;;;1.80;;
55031;SDS011;40928;51.076;7.950;2022-12-18T11:04:19;2.75;;;1.30;;
55031;SDS011;40928;51.076;7.950;2022-12-18T11:09:26;4.07;;;1.45;;
55031;SDS011;40928;51.076;7.950;2022-12-18T11:11:54;3.10;;;1.42;;
55031;SDS011;40928;51.076;7.950;2022-12-18T11:14:25;4.25;;;1.77;;
55031;SDS011;40928;51.076;7.950;2022-12-18T11:16:54;3.67;;;1.88;;
55031;SDS011;40928;51.076;7.950;2022-12-18T11:19:38;3.85;;;1.90;;
55031;SDS011;40928;51.076;7.950;2022-12-18T11:25:02;3.28;;;1.48;;
55031;SDS011;40928;51.076;7.950;2022-12-18T11:27:31;4.22;;;1.70;;
55031;SDS011;40928;51.076;7.950;2022-12-18T11:33:05;4.80;;;1.98;;
55031;SDS011;40928;51.076;7.950;2022-12-18T11:43:46;7.85;;;3.25;;
55031;SDS011;40928;51.076;7.950;2022-12-18T11:55:00;7.65;;;2.28;;
55031;SDS011;40928;51.076;7.950;2022-12-18T11:57:36;5.20;;;1.83;;
55031;SDS011;40928;51.076;7.950;2022-12-18T12:00:18;5.78;;;2.50;;
55031;SDS011;40928;51.076;7.950;2022-12-18T12:19:26;5.20;;;2.33;;
55031;SDS011;40928;51.076;7.950;2022-12-18T12:22:13;7.20;;;2.83;;
55031;SDS011;40928;51.076;7.950;2022-12-18T12:33:50;7.85;;;3.22;;
55031;SDS011;40928;51.076;7.950;2022-12-18T12:39:18;5.10;;;2.40;;
55031;SDS011;40928;51.076;7.950;2022-12-18T12:41:48;6.38;;;2.75;;
55031;SDS011;40928;51.076;7.950;2022-12-18T12:44:39;8.05;;;3.22;;
55031;SDS011;40928;51.076;7.950;2022-12-18T12:47:16;6.30;;;3.38;;
55031;SDS011;40928;51.076;7.950;2022-12-18T12:49:53;8.68;;;3.00;;
55031;SDS011;40928;51.076;7.950;2022-12-18T12:52:24;16.58;;;7.15;;
55031;SDS011;40928;51.076;7.950;2022-12-18T12:55:26;43.88;;;21.92;;
55031;SDS011;40928;51.076;7.950;2022-12-18T13:03:41;11.20;;;3.72;;
55031;SDS011;40928;51.076;7.950;2022-12-18T13:06:19;7.85;;;3.25;;
55031;SDS011;40928;51.076;7.950;2022-12-18T13:09:01;8.02;;;3.50;;
55031;SDS011;40928;51.076;7.950;2022-12-18T13:11:51;7.78;;;3.42;;
55031;SDS011;40928;51.076;7.950;2022-12-18T13:14:35;8.13;;;3.50;;
55031;SDS011;40928;51.076;7.950;2022-12-18T13:22:34;9.65;;;4.47;;
55031;SDS011;40928;51.076;7.950;2022-12-18T13:25:03;9.23;;;4.18;;
55031;SDS011;40928;51.076;7.950;2022-12-18T13:45:50;14.98;;;6.22;;
55031;SDS011;40928;51.076;7.950;2022-12-18T13:48:26;17.33;;;7.10;;
55031;SDS011;40928;51.076;7.950;2022-12-18T13:50:55;16.73;;;7.00;;
55031;SDS011;40928;51.076;7.950;2022-12-18T13:56:17;14.75;;;6.88;;
55031;SDS011;40928;51.076;7.950;2022-12-18T13:58:46;15.32;;;7.13;;
55031;SDS011;40928;51.076;7.950;2022-12-18T14:01:33;23.50;;;7.18;;
55031;SDS011;40928;51.076;7.950;2022-12-18T14:04:12;17.63;;;7.15;;
55031;SDS011;40928;51.076;7.950;2022-12-18T14:06:44;21.27;;;7.80;;
55031;SDS011;40928;51.076;7.950;2022-12-18T14:09:14;16.23;;;7.47;;
55031;SDS011;40928;51.076;7.950;2022-12-18T14:11:49;14.77;;;6.50;;
55031;SDS011;40928;51.076;7.950;2022-12-18T14:14:16;17.33;;;7.68;;
55031;SDS011;40928;51.076;7.950;2022-12-18T14:16:43;20.15;;;8.88;;
55031;SDS011;40928;51.076;7.950;2022-12-18T14:19:14;18.63;;;8.00;;
55031;SDS011;40928;51.076;7.950;2022-12-18T14:21:47;20.90;;;8.25;;
55031;SDS011;40928;51.076;7.950;2022-12-18T14:24:17;17.38;;;7.13;;
55031;SDS011;40928;51.076;7.950;2022-12-18T14:26:45;19.30;;;7.75;;
55031;SDS011;40928;51.076;7.950;2022-12-18T14:34:33;20.58;;;7.78;;
55031;SDS011;40928;51.076;7.950;2022-12-18T14:36:58;23.33;;;7.97;;
55031;SDS011;40928;51.076;7.950;2022-12-18T14:39:24;19.20;;;7.25;;
55031;SDS011;40928;51.076;7.950;2022-12-18T14:41:50;24.45;;;8.68;;
55031;SDS011;40928;51.076;7.950;2022-12-18T14:44:16;19.33;;;7.68;;
55031;SDS011;40928;51.076;7.950;2022-12-18T14:46:43;15.88;;;7.22;;
55031;SDS011;40928;51.076;7.950;2022-12-18T14:52:03;17.08;;;8.20;;
55031;SDS011;40928;51.076;7.950;2022-12-18T14:54:30;14.93;;;6.47;;
55031;SDS011;40928;51.076;7.950;2022-12-18T14:57:06;17.08;;;7.68;;
55031;SDS011;40928;51.076;7.950;2022-12-18T14:59:40;18.60;;;8.10;;
55031;SDS011;40928;51.076;7.950;2022-12-18T15:04:47;14.82;;;6.88;;
55031;SDS011;40928;51.076;7.950;2022-12-18T15:23:33;17.05;;;7.82;;
55031;SDS011;40928;51.076;7.950;2022-12-18T15:26:05;16.13;;;7.15;;
55031;SDS011;40928;51.076;7.950;2022-12-18T15:28:48;17.88;;;7.65;;
55031;SDS011;40928;51.076;7.950;2022-12-18T15:33:42;20.58;;;8.45;;
55031;SDS011;40928;51.076;7.950;2022-12-18T15:36:19;24.20;;;10.13;;
55031;SDS011;40928;51.076;7.950;2022-12-18T15:38:46;18.33;;;7.88;;
55031;SDS011;40928;51.076;7.950;2022-12-18T15:41:13;17.45;;;8.23;;
55031;SDS011;40928;51.076;7.950;2022-12-18T15:43:40;24.55;;;7.72;;
55031;SDS011;40928;51.076;7.950;2022-12-18T15:46:10;21.85;;;8.30;;
55031;SDS011;40928;51.076;7.950;2022-12-18T15:48:39;22.20;;;8.57;;
55031;SDS011;40928;51.076;7.950;2022-12-18T15:54:09;17.77;;;7.57;;
55031;SDS011;40928;51.076;7.950;2022-12-18T15:56:38;25.50;;;9.15;;
55031;SDS011;40928;51.076;7.950;2022-12-18T15:59:25;21.38;;;8.35;;
55031;SDS011;40928;51.076;7.950;2022-12-18T16:01:51;22.73;;;8.43;;
55031;SDS011;40928;51.076;7.950;2022-12-18T16:04:21;20.58;;;8.13;;
55031;SDS011;40928;51.076;7.950;2022-12-18T16:06:48;24.10;;;8.85;;
55031;SDS011;40928;51.076;7.950;2022-12-18T16:09:14;22.85;;;9.55;;
55031;SDS011;40928;51.076;7.950;2022-12-18T16:11:41;22.25;;;8.90;;
55031;SDS011;40928;51.076;7.950;2022-12-18T16:16:46;24.23;;;8.63;;
55031;SDS011;40928;51.076;7.950;2022-12-18T16:19:13;20.50;;;7.88;;
55031;SDS011;40928;51.076;7.950;2022-12-18T16:21:39;25.17;;;9.35;;
55031;SDS011;40928;51.076;7.950;2022-12-18T16:24:05;26.38;;;10.45;;
55031;SDS011;40928;51.076;7.950;2022-12-18T16:26:31;19.25;;;8.60;;
55031;SDS011;40928;51.076;7.950;2022-12-18T16:28:56;23.85;;;9.40;;
55031;SDS011;40928;51.076;7.950;2022-12-18T16:31:22;24.05;;;9.65;;
55031;SDS011;40928;51.076;7.950;2022-12-18T16:33:47;31.42;;;10.80;;
55031;SDS011;40928;51.076;7.950;2022-12-18T16:36:13;25.08;;;9.93;;
55031;SDS011;40928;51.076;7.950;2022-12-18T16:38:38;31.23;;;11.27;;
55031;SDS011;40928;51.076;7.950;2022-12-18T16:41:11;29.85;;;10.50;;
55031;SDS011;40928;51.076;7.950;2022-12-18T16:44:03;27.25;;;11.05;;
55031;SDS011;40928;51.076;7.950;2022-12-18T16:46:32;25.75;;;10.15;;
55031;SDS011;40928;51.076;7.950;2022-12-18T16:48:58;29.05;;;11.45;;
55031;SDS011;40928;51.076;7.950;2022-12-18T16:51:25;25.20;;;10.73;;
55031;SDS011;40928;51.076;7.950;2022-12-18T16:53:52;29.75;;;11.32;;
55031;SDS011;40928;51.076;7.950;2022-12-18T16:56:19;26.77;;;11.10;;
55031;SDS011;40928;51.076;7.950;2022-12-18T16:58:54;30.58;;;11.77;;
55031;SDS011;40928;51.076;7.950;2022-12-18T17:01:22;31.73;;;12.38;;
55031;SDS011;40928;51.076;7.950;2022-12-18T17:03:58;30.40;;;11.40;;
55031;SDS011;40928;51.076;7.950;2022-12-18T17:09:00;23.92;;;10.07;;
55031;SDS011;40928;51.076;7.950;2022-12-18T17:11:29;24.42;;;10.45;;
55031;SDS011;40928;51.076;7.950;2022-12-18T17:13:56;29.75;;;11.45;;
55031;SDS011;40928;51.076;7.950;2022-12-18T17:16:22;28.58;;;10.77;;
55031;SDS011;40928;51.076;7.950;2022-12-18T17:18:48;24.42;;;11.40;;
55031;SDS011;40928;51.076;7.950;2022-12-18T17:21:16;32.40;;;12.88;;
55031;SDS011;40928;51.076;7.950;2022-12-18T17:23:42;28.52;;;11.65;;
55031;SDS011;40928;51.076;7.950;2022-12-18T17:26:09;26.17;;;11.30;;
55031;SDS011;40928;51.076;7.950;2022-12-18T17:28:36;32.75;;;12.90;;
55031;SDS011;40928;51.076;7.950;2022-12-18T17:31:09;29.38;;;11.60;;
55031;SDS011;40928;51.076;7.950;2022-12-18T17:33:38;30.98;;;11.07;;
55031;SDS011;40928;51.076;7.950;2022-12-18T17:36:05;28.58;;;12.25;;
55031;SDS011;40928;51.076;7.950;2022-12-18T17:38:31;31.25;;;12.45;;
55031;SDS011;40928;51.076;7.950;2022-12-18T17:41:00;32.25;;;12.38;;
55031;SDS011;40928;51.076;7.950;2022-12-18T17:43:33;29.13;;;12.45;;
55031;SDS011;40928;51.076;7.950;2022-12-18T17:46:04;24.60;;;11.48;;